Time;durP1;ratioP1;P1;durP2;ratioP2;P2;SDS_P1;SDS_P2;PMS_P1;PMS_P2;Temp;Humidity;BMP_temperature;BMP_pressure;BME280_temperature;BME280_humidity;BME280_pressure;Samples;Min_cycle;Max_cycle;Signal;HPM_P1;HPM_P2
2022/08/07 00:01:10;;;;;;;85.43;52.05;;;27.30;99.90;;;;;;4995277;28;20034;-65
2022/08/07 00:03:37;;;;;;;76.05;50.05;;;27.30;99.90;;;;;;4995135;28;20039;-65
2022/08/07 00:06:04;;;;;;;84.20;53.40;;;27.30;99.90;;;;;;4994947;28;20034;-65
2022/08/07 00:08:31;;;;;;;89.38;56.45;;;27.40;99.90;;;;;;4994139;28;20030;-65
2022/08/07 00:10:57;;;;;;;86.90;51.13;;;27.40;99.90;;;;;;4994983;28;20033;-65
2022/08/07 00:13:24;;;;;;;57.58;40.20;;;27.50;99.90;;;;;;4994798;28;20489;-64
2022/08/07 00:15:52;;;;;;;59.88;41.15;;;27.40;99.90;;;;;;4994959;28;20034;-64
2022/08/07 00:18:21;;;;;;;61.10;41.13;;;27.50;99.90;;;;;;4994918;28;20035;-65
2022/08/07 00:20:48;;;;;;;64.53;42.67;;;27.50;99.90;;;;;;4994722;28;20027;-65
2022/08/07 00:23:15;;;;;;;83.38;53.60;;;27.50;99.90;;;;;;4994735;28;20034;-64
2022/08/07 00:25:41;;;;;;;89.05;56.85;;;27.60;99.90;;;;;;4994636;28;20034;-64
2022/08/07 00:28:08;;;;;;;96.82;64.32;;;27.70;99.90;;;;;;4994615;28;20050;-65
2022/08/07 00:30:35;;;;;;;166.40;109.05;;;27.70;99.90;;;;;;4994626;28;20029;-64
2022/08/07 00:33:01;;;;;;;187.02;118.20;;;27.70;99.90;;;;;;4994632;28;20061;-65
2022/08/07 00:35:28;;;;;;;240.70;160.00;;;27.80;99.90;;;;;;4994271;28;20053;-65
2022/08/07 00:37:55;;;;;;;329.15;195.43;;;27.80;99.90;;;;;;4994562;28;20022;-65
2022/08/07 00:40:22;;;;;;;386.15;183.70;;;27.90;99.90;;;;;;4994469;28;20501;-64
2022/08/07 00:42:48;;;;;;;298.60;131.27;;;27.90;99.90;;;;;;4994169;28;20042;-65
2022/08/07 00:45:15;;;;;;;352.75;155.18;;;28.00;99.90;;;;;;4994683;28;20023;-65
2022/08/07 00:47:41;;;;;;;253.35;107.78;;;28.00;99.90;;;;;;4994225;28;20039;-64
2022/08/07 00:50:08;;;;;;;207.07;88.00;;;28.00;99.90;;;;;;4994188;28;20018;-65
2022/08/07 00:52:35;;;;;;;269.05;95.82;;;28.10;99.90;;;;;;4994237;28;20062;-65
2022/08/07 00:55:02;;;;;;;318.45;108.85;;;28.10;99.90;;;;;;4994286;28;20023;-65
2022/08/07 00:57:29;;;;;;;282.13;118.00;;;28.20;99.90;;;;;;4993938;28;20026;-65
2022/08/07 00:59:55;;;;;;;271.35;105.75;;;28.30;99.90;;;;;;4993285;28;20037;-65
2022/08/07 01:02:23;;;;;;;161.73;70.25;;;28.30;99.90;;;;;;4994339;28;20547;-65
2022/08/07 01:04:51;;;;;;;143.90;65.97;;;28.30;99.90;;;;;;4993817;28;20030;-64
2022/08/07 01:07:21;;;;;;;114.72;58.70;;;28.30;99.90;;;;;;4993977;28;20030;-65
2022/08/07 01:09:48;;;;;;;82.22;47.33;;;28.40;99.90;;;;;;4994021;28;20019;-65
2022/08/07 01:12:15;;;;;;;91.00;46.15;;;28.40;99.90;;;;;;4993703;28;20033;-65
2022/08/07 01:14:42;;;;;;;109.10;75.63;;;28.50;99.90;;;;;;4994012;28;20073;-65
2022/08/07 01:17:09;;;;;;;75.32;50.30;;;28.50;99.90;;;;;;4994020;28;20088;-65
2022/08/07 01:19:37;;;;;;;62.25;43.00;;;28.60;99.90;;;;;;4993708;28;20026;-65
2022/08/07 01:22:04;;;;;;;64.40;39.80;;;28.70;99.90;;;;;;4993889;28;20026;-65
2022/08/07 01:24:31;;;;;;;51.50;31.83;;;28.70;99.90;;;;;;4993974;28;20441;-64
2022/08/07 01:26:59;;;;;;;66.90;34.30;;;28.80;99.90;;;;;;4993504;28;20080;-64
2022/08/07 01:29:29;;;;;;;42.25;26.85;;;28.80;99.90;;;;;;4993538;28;20452;-65
2022/08/07 01:31:56;;;;;;;44.90;28.13;;;28.80;99.90;;;;;;4993659;28;20030;-65
2022/08/07 01:34:22;;;;;;;42.28;27.42;;;28.80;99.90;;;;;;4993544;28;20026;-65
2022/08/07 01:36:50;;;;;;;43.10;28.20;;;28.90;99.90;;;;;;4993802;28;20433;-65
2022/08/07 01:39:17;;;;;;;36.20;25.42;;;28.90;99.90;;;;;;4993717;28;20076;-65
2022/08/07 01:41:44;;;;;;;36.72;25.95;;;28.90;99.90;;;;;;4993483;28;20105;-65
2022/08/07 01:44:11;;;;;;;47.80;25.15;;;28.90;99.90;;;;;;4993620;28;20023;-65
2022/08/07 01:46:40;;;;;;;40.45;22.95;;;29.00;99.90;;;;;;4992799;28;20057;-65
2022/08/07 01:49:07;;;;;;;38.28;23.20;;;29.00;99.90;;;;;;5001676;28;20181;-64
2022/08/07 01:51:35;;;;;;;42.35;23.80;;;29.10;99.90;;;;;;5007927;28;20037;-63
2022/08/07 01:54:06;;;;;;;34.55;22.60;;;29.10;99.90;;;;;;5011673;28;20022;-64
2022/08/07 01:56:42;;;;;;;39.97;23.10;;;29.20;99.90;;;;;;5011483;28;20030;-64
2022/08/07 01:59:14;;;;;;;34.47;24.15;;;29.20;99.90;;;;;;5011601;28;20113;-64
2022/08/07 02:01:47;;;;;;;38.63;25.80;;;29.20;99.90;;;;;;5012892;28;20026;-63
2022/08/07 02:04:35;;;;;;;86.82;64.75;;;29.10;99.90;;;;;;5013045;28;20083;-63
2022/08/07 02:07:03;;;;;;;51.33;36.25;;;29.20;99.90;;;;;;5011677;28;20492;-63
2022/08/07 02:09:31;;;;;;;55.80;35.50;;;29.30;99.90;;;;;;5013076;28;20029;-64
2022/08/07 02:12:15;;;;;;;116.22;71.03;;;29.30;99.90;;;;;;5015883;28;20116;-64
2022/08/07 02:14:47;;;;;;;119.72;80.03;;;29.40;99.90;;;;;;5013974;28;20026;-67
2022/08/07 02:17:14;;;;;;;53.42;33.83;;;29.40;99.90;;;;;;5015266;28;20030;-67
2022/08/07 02:19:45;;;;;;;79.60;59.67;;;29.50;99.90;;;;;;5012727;28;20036;-65
2022/08/07 02:22:13;;;;;;;55.45;34.75;;;29.70;99.90;;;;;;5014483;28;20065;-67
2022/08/07 02:24:43;;;;;;;248.15;173.65;;;29.80;99.90;;;;;;5015087;28;20069;-65
2022/08/07 02:27:13;;;;;;;70.63;50.20;;;29.90;99.90;;;;;;5014769;28;20535;-67
2022/08/07 02:29:41;;;;;;;45.90;28.80;;;29.90;99.90;;;;;;5012441;28;20041;-65
2022/08/07 02:32:09;;;;;;;37.75;22.65;;;29.80;99.90;;;;;;5013191;28;20026;-67
2022/08/07 02:34:40;;;;;;;85.13;46.00;;;30.00;99.90;;;;;;5013040;28;20018;-66
2022/08/07 02:37:08;;;;;;;35.00;23.47;;;30.00;99.90;;;;;;5013518;28;20034;-67
2022/08/07 02:39:38;;;;;;;30.30;21.50;;;30.10;99.90;;;;;;5013547;28;20100;-67
2022/08/07 02:42:07;;;;;;;30.65;22.20;;;30.10;99.90;;;;;;5013688;28;20477;-67
2022/08/07 02:44:35;;;;;;;32.67;21.52;;;30.10;99.90;;;;;;5014137;28;20473;-66
2022/08/07 02:47:03;;;;;;;29.80;21.52;;;30.20;99.90;;;;;;5014106;28;20087;-67
2022/08/07 02:49:30;;;;;;;36.42;20.42;;;30.30;99.90;;;;;;5012808;28;20030;-66
2022/08/07 02:52:00;;;;;;;44.25;21.77;;;30.30;99.90;;;;;;5012101;28;20097;-66
2022/08/07 02:54:30;;;;;;;30.45;21.42;;;30.30;99.90;;;;;;5013233;28;20029;-65
2022/08/07 02:57:00;;;;;;;28.27;22.40;;;30.30;99.90;;;;;;5013293;28;20022;-67
2022/08/07 02:59:28;;;;;;;30.25;22.02;;;30.30;99.90;;;;;;5013104;28;20388;-65
2022/08/07 03:01:56;;;;;;;33.92;21.92;;;30.40;99.90;;;;;;5013189;28;20022;-66
2022/08/07 03:04:24;;;;;;;44.47;32.08;;;30.50;99.90;;;;;;5013097;28;20129;-67
2022/08/07 03:06:52;;;;;;;95.32;68.18;;;30.50;99.90;;;;;;5012321;28;20057;-67
2022/08/07 03:09:20;;;;;;;37.72;28.85;;;30.60;99.90;;;;;;5010994;28;20041;-66
2022/08/07 03:11:47;;;;;;;40.55;25.40;;;30.60;99.90;;;;;;5013014;28;20029;-67
2022/08/07 03:14:14;;;;;;;36.05;24.42;;;30.60;99.90;;;;;;5010656;28;20010;-66
2022/08/07 03:16:41;;;;;;;38.13;25.90;;;30.60;99.90;;;;;;5013122;28;20112;-65
2022/08/07 03:19:09;;;;;;;103.57;75.78;;;30.40;99.90;;;;;;5012755;28;20061;-66
2022/08/07 03:21:36;;;;;;;62.30;46.20;;;30.30;99.90;;;;;;5012717;28;20387;-67
2022/08/07 03:24:03;;;;;;;40.97;27.65;;;30.30;99.90;;;;;;5012516;28;20022;-69
2022/08/07 03:26:31;;;;;;;37.25;24.80;;;30.40;99.90;;;;;;5013371;28;20419;-67
2022/08/07 03:29:01;;;;;;;32.28;23.55;;;30.50;99.90;;;;;;5015270;28;20125;-68
2022/08/07 03:31:30;;;;;;;41.70;23.95;;;30.60;99.90;;;;;;5015495;28;20029;-68
2022/08/07 03:34:01;;;;;;;37.53;24.55;;;30.70;99.90;;;;;;5015429;28;20022;-67
2022/08/07 03:36:29;;;;;;;39.25;23.55;;;30.70;99.90;;;;;;5015140;28;20111;-69
2022/08/07 03:39:03;;;;;;;33.25;23.58;;;30.80;99.90;;;;;;5015328;28;20032;-67
2022/08/07 03:41:31;;;;;;;31.23;23.38;;;30.80;99.90;;;;;;5014141;28;20160;-66
2022/08/07 03:43:58;;;;;;;44.63;32.13;;;30.80;99.90;;;;;;5006196;28;20022;-66
2022/08/07 03:46:25;;;;;;;55.05;37.17;;;30.80;99.90;;;;;;4995991;28;20022;-67
2022/08/07 03:48:53;;;;;;;50.42;32.97;;;31.00;99.90;;;;;;5002496;28;20029;-66
2022/08/07 03:51:20;;;;;;;47.10;26.75;;;31.00;99.90;;;;;;5005888;28;20021;-67
2022/08/07 03:53:48;;;;;;;36.28;25.48;;;31.00;99.90;;;;;;5014783;28;20026;-66
2022/08/07 03:56:19;;;;;;;37.88;25.45;;;31.10;99.90;;;;;;5014745;28;20061;-67
2022/08/07 03:58:47;;;;;;;34.83;25.45;;;31.00;99.90;;;;;;5014903;28;20077;-67
2022/08/07 04:01:16;;;;;;;31.63;23.58;;;31.10;99.90;;;;;;5013339;28;20041;-67
2022/08/07 04:03:43;;;;;;;34.22;25.42;;;31.30;99.90;;;;;;5013166;28;20028;-66
2022/08/07 04:06:10;;;;;;;29.10;23.48;;;31.40;99.90;;;;;;5013444;28;20021;-66
2022/08/07 04:08:40;;;;;;;39.70;25.20;;;31.40;99.90;;;;;;5013703;28;20061;-66
2022/08/07 04:11:09;;;;;;;46.45;26.58;;;31.40;99.90;;;;;;5010803;28;20030;-68
2022/08/07 04:13:36;;;;;;;31.63;24.65;;;31.40;99.90;;;;;;5013625;28;20026;-66
2022/08/07 04:16:03;;;;;;;32.90;24.50;;;31.40;99.90;;;;;;5010956;28;20435;-66
2022/08/07 04:18:30;;;;;;;36.78;25.95;;;31.50;99.90;;;;;;5013317;28;20030;-66
2022/08/07 04:20:57;;;;;;;82.68;60.58;;;31.50;99.90;;;;;;5014250;28;20084;-66
2022/08/07 04:23:24;;;;;;;169.07;121.68;;;31.40;99.90;;;;;;5013407;28;20053;-66
2022/08/07 04:25:52;;;;;;;51.95;36.17;;;31.50;99.90;;;;;;5013617;28;20451;-66
2022/08/07 04:28:19;;;;;;;42.53;26.77;;;31.50;99.90;;;;;;5013595;28;20065;-66
2022/08/07 04:30:49;;;;;;;32.15;22.55;;;31.60;99.90;;;;;;5013893;28;20095;-66
2022/08/07 04:33:17;;;;;;;36.58;23.67;;;31.80;99.80;;;;;;5013402;28;20022;-66
2022/08/07 04:35:46;;;;;;;36.67;23.60;;;31.80;99.90;;;;;;5013520;28;20152;-66
2022/08/07 04:38:14;;;;;;;37.25;26.42;;;31.90;99.90;;;;;;5013739;28;20033;-67
2022/08/07 04:40:42;;;;;;;39.03;26.52;;;32.10;99.90;;;;;;5013133;28;20030;-66
2022/08/07 04:43:09;;;;;;;36.97;27.17;;;32.00;99.30;;;;;;5010497;28;20044;-66
2022/08/07 04:45:38;;;;;;;34.47;26.20;;;31.90;99.90;;;;;;5013241;28;20014;-66
2022/08/07 04:48:16;;;;;;;40.67;26.98;;;32.00;99.90;;;;;;5011007;28;20018;-65
2022/08/07 04:50:52;;;;;;;44.00;29.60;;;32.00;99.60;;;;;;5013422;28;20025;-65
2022/08/07 04:53:49;;;;;;;37.30;26.73;;;32.00;98.60;;;;;;5013352;28;20447;-64
2022/08/07 04:56:20;;;;;;;40.88;26.20;;;32.00;99.20;;;;;;5009931;28;20481;-65
2022/08/07 04:59:08;;;;;;;37.58;25.27;;;32.00;99.20;;;;;;5012554;28;20036;-61
2022/08/07 05:01:39;;;;;;;34.30;25.20;;;32.10;98.80;;;;;;5009852;28;20022;-62
2022/08/07 05:04:24;;;;;;;35.85;27.20;;;32.00;99.30;;;;;;5011403;28;20045;-63
2022/08/07 05:07:16;;;;;;;36.85;28.23;;;32.10;99.30;;;;;;5011215;28;20033;-63
2022/08/07 05:09:57;;;;;;;42.60;30.08;;;32.20;99.10;;;;;;5010963;28;20057;-65
2022/08/07 05:12:31;;;;;;;34.33;27.67;;;32.10;98.00;;;;;;5011179;28;20029;-65
2022/08/07 05:15:22;;;;;;;60.65;49.35;;;32.20;97.70;;;;;;5010798;28;20053;-65
2022/08/07 05:17:56;;;;;;;40.83;29.97;;;32.20;98.10;;;;;;5009815;28;20030;-65
2022/08/07 05:20:29;;;;;;;50.40;29.85;;;32.40;97.50;;;;;;5012043;28;20030;-66
2022/08/07 05:23:00;;;;;;;36.45;22.75;;;32.60;97.10;;;;;;5009899;28;20062;-64
2022/08/07 05:25:28;;;;;;;32.17;22.75;;;32.60;94.80;;;;;;5010111;28;20033;-64
2022/08/07 05:27:56;;;;;;;34.65;22.17;;;32.60;96.30;;;;;;5009331;28;20053;-65
2022/08/07 05:30:24;;;;;;;31.85;23.15;;;32.70;96.60;;;;;;5012006;28;20053;-68
2022/08/07 05:32:53;;;;;;;31.50;21.17;;;32.70;95.50;;;;;;5011969;28;20029;-68
2022/08/07 05:35:21;;;;;;;29.10;21.27;;;32.60;94.40;;;;;;5011984;28;20018;-67
2022/08/07 05:37:48;;;;;;;30.05;20.77;;;32.60;95.30;;;;;;5009692;28;20348;-68
2022/08/07 05:40:16;;;;;;;36.72;22.55;;;32.70;94.90;;;;;;5012005;28;20105;-70
2022/08/07 05:42:45;;;;;;;27.50;19.85;;;32.90;96.20;;;;;;5011794;28;20044;-66
2022/08/07 05:45:11;;;;;;;28.77;20.38;;;32.90;95.10;;;;;;5011846;28;20455;-70
2022/08/07 05:47:38;;;;;;;30.65;19.63;;;32.90;94.30;;;;;;5015913;28;20026;-65
2022/08/07 05:50:06;;;;;;;27.48;19.90;;;33.00;94.70;;;;;;5014651;28;20028;-66
2022/08/07 05:52:33;;;;;;;25.63;19.75;;;33.00;94.70;;;;;;5014558;28;20472;-67
2022/08/07 05:55:00;;;;;;;25.10;19.23;;;33.10;94.10;;;;;;5014646;28;20432;-66
2022/08/07 05:57:28;;;;;;;28.00;19.83;;;33.20;93.30;;;;;;5013631;28;20068;-67
2022/08/07 05:59:57;;;;;;;24.33;17.83;;;33.30;92.90;;;;;;5014343;28;20026;-66
2022/08/07 06:02:26;;;;;;;19.85;16.75;;;33.40;91.50;;;;;;5014126;28;20041;-67
2022/08/07 06:04:57;;;;;;;22.30;16.15;;;33.50;91.20;;;;;;5014324;28;20084;-67
2022/08/07 06:07:24;;;;;;;21.58;16.92;;;33.50;90.10;;;;;;5014132;28;20034;-67
2022/08/07 06:09:51;;;;;;;23.00;17.35;;;33.40;89.90;;;;;;5012117;28;20388;-66
2022/08/07 06:12:18;;;;;;;31.30;20.70;;;33.60;90.30;;;;;;5012535;28;20101;-67
2022/08/07 06:14:44;;;;;;;25.17;18.90;;;33.60;90.90;;;;;;5012669;28;20029;-67
2022/08/07 06:17:13;;;;;;;22.90;16.33;;;33.50;91.70;;;;;;5013810;28;20028;-68
2022/08/07 06:19:41;;;;;;;23.88;16.92;;;33.60;90.50;;;;;;5014040;28;20030;-67
2022/08/07 06:22:07;;;;;;;28.45;19.00;;;33.60;89.50;;;;;;5013785;28;20030;-67
2022/08/07 06:24:35;;;;;;;75.15;56.30;;;33.60;90.00;;;;;;5014199;28;20400;-66
2022/08/07 06:27:02;;;;;;;88.57;70.82;;;33.70;89.70;;;;;;5012718;28;20025;-65
2022/08/07 06:29:29;;;;;;;21.77;14.00;;;33.70;88.70;;;;;;5011897;28;20068;-69
2022/08/07 06:31:55;;;;;;;17.73;12.88;;;33.90;83.60;;;;;;5013992;28;20109;-67
2022/08/07 06:34:24;;;;;;;24.50;13.98;;;33.90;84.10;;;;;;5014631;28;20029;-67
2022/08/07 06:36:51;;;;;;;20.77;14.02;;;34.10;84.40;;;;;;5014521;28;20030;-67
2022/08/07 06:39:18;;;;;;;18.83;13.73;;;34.00;81.30;;;;;;5012047;28;20105;-67
2022/08/07 06:41:52;;;;;;;30.02;13.50;;;34.10;83.80;;;;;;5013438;28;20026;-66
2022/08/07 06:44:20;;;;;;;20.80;12.95;;;34.00;83.50;;;;;;5015146;28;20026;-67
2022/08/07 06:46:47;;;;;;;18.55;12.80;;;34.00;83.70;;;;;;5012431;28;20018;-65
2022/08/07 06:49:14;;;;;;;20.67;13.90;;;34.00;82.70;;;;;;5012649;28;20022;-66
2022/08/07 06:51:42;;;;;;;21.27;13.65;;;34.00;82.50;;;;;;5014321;28;20493;-65
2022/08/07 06:54:10;;;;;;;18.10;13.35;;;34.10;79.20;;;;;;5014021;28;20470;-66
2022/08/07 06:56:38;;;;;;;21.13;14.82;;;34.10;82.20;;;;;;5015046;28;20138;-64
2022/08/07 06:59:11;;;;;;;25.38;13.65;;;34.10;79.00;;;;;;5015351;28;20101;-67
2022/08/07 07:01:40;;;;;;;17.73;12.98;;;34.10;79.60;;;;;;5015252;28;20033;-67
2022/08/07 07:04:07;;;;;;;16.90;12.95;;;34.10;78.10;;;;;;5015821;28;20493;-67
2022/08/07 07:06:34;;;;;;;21.67;13.75;;;34.10;78.90;;;;;;5015245;28;20125;-65
2022/08/07 07:09:23;;;;;;;19.63;13.73;;;34.10;79.90;;;;;;5014746;28;20018;-65
2022/08/07 07:12:01;;;;;;;15.43;11.70;;;34.10;79.60;;;;;;5014781;28;20399;-63
2022/08/07 07:14:31;;;;;;;19.38;12.68;;;34.00;78.00;;;;;;5034966;28;20069;-66
2022/08/07 07:17:02;;;;;;;42.08;32.63;;;34.00;78.60;;;;;;5030459;28;20547;-67
2022/08/07 07:19:33;;;;;;;24.02;16.52;;;34.10;81.30;;;;;;5016191;28;20448;-66
2022/08/07 07:22:00;;;;;;;17.85;15.07;;;34.00;81.30;;;;;;5016487;28;20022;-66
2022/08/07 07:24:27;;;;;;;19.52;14.32;;;34.00;81.80;;;;;;5016027;28;20104;-67
2022/08/07 07:26:57;;;;;;;20.55;14.80;;;34.10;82.20;;;;;;5012160;28;20030;-67
2022/08/07 07:29:30;;;;;;;21.60;15.48;;;34.10;81.00;;;;;;5023299;28;20037;-66
2022/08/07 07:32:00;;;;;;;21.60;14.70;;;34.10;81.80;;;;;;5035461;28;20026;-67
2022/08/07 07:34:31;;;;;;;20.55;14.45;;;34.20;82.00;;;;;;5035384;28;20017;-67
2022/08/07 07:37:00;;;;;;;17.05;14.18;;;34.20;80.40;;;;;;5035695;28;20041;-67
2022/08/07 07:39:29;;;;;;;96.53;84.72;;;34.10;77.20;;;;;;5024142;28;20061;-65
2022/08/07 07:41:56;;;;;;;23.00;16.65;;;34.10;80.40;;;;;;5014064;28;20064;-67
2022/08/07 07:44:26;;;;;;;29.55;18.30;;;34.20;79.10;;;;;;5006027;28;20026;-65
2022/08/07 07:46:54;;;;;;;19.13;14.90;;;34.30;81.50;;;;;;5033884;28;20041;-66
2022/08/07 07:49:24;;;;;;;21.50;15.10;;;34.30;79.10;;;;;;5035130;28;20026;-67
2022/08/07 07:51:52;;;;;;;24.60;17.15;;;34.30;77.30;;;;;;5035000;28;20040;-66
2022/08/07 07:54:20;;;;;;;23.17;16.58;;;34.30;77.80;;;;;;5024142;28;20026;-66
2022/08/07 07:56:48;;;;;;;20.15;13.10;;;34.30;77.40;;;;;;5014988;28;20037;-67
2022/08/07 07:59:15;;;;;;;23.92;16.98;;;34.30;75.40;;;;;;5014262;28;20152;-66
2022/08/07 08:01:45;;;;;;;19.30;15.27;;;34.20;78.70;;;;;;5014657;28;20033;-65
2022/08/07 08:04:13;;;;;;;14.82;12.65;;;34.20;79.50;;;;;;5013712;28;20049;-67
2022/08/07 08:06:42;;;;;;;21.95;17.67;;;34.20;78.10;;;;;;5013426;28;20030;-67
2022/08/07 08:09:09;;;;;;;18.98;15.40;;;34.20;78.40;;;;;;5010754;28;20033;-67
2022/08/07 08:11:37;;;;;;;26.42;20.60;;;34.30;76.00;;;;;;5013313;28;20049;-67
2022/08/07 08:14:04;;;;;;;137.88;93.57;;;34.40;76.40;;;;;;5014549;28;20028;-67
2022/08/07 08:16:38;;;;;;;28.63;18.83;;;34.40;78.10;;;;;;5014241;28;20025;-67
2022/08/07 08:19:08;;;;;;;24.33;18.77;;;34.50;76.80;;;;;;5014749;28;20026;-67
2022/08/07 08:27:08;;;;;;;24.75;16.58;;;34.60;76.20;;;;;;5014395;28;20030;-67
2022/08/07 08:29:41;;;;;;;31.42;21.90;;;34.60;76.20;;;;;;5014269;28;20061;-67
2022/08/07 08:32:14;;;;;;;39.90;30.50;;;34.70;76.10;;;;;;5014385;28;20029;-67
2022/08/07 08:34:44;;;;;;;28.08;20.83;;;34.70;77.10;;;;;;5014225;28;20029;-67
2022/08/07 08:37:12;;;;;;;30.45;17.65;;;34.60;77.80;;;;;;5013815;28;20030;-67
2022/08/07 08:39:42;;;;;;;27.35;16.13;;;34.50;78.20;;;;;;5014125;28;20079;-67
2022/08/07 08:42:24;;;;;;;25.67;17.20;;;34.50;76.60;;;;;;5014018;28;20025;-67
2022/08/07 08:44:52;;;;;;;26.35;17.60;;;34.40;76.30;;;;;;5013904;28;20376;-66
2022/08/07 08:47:28;;;;;;;30.65;18.20;;;34.40;77.70;;;;;;5013084;28;20484;-68
2022/08/07 08:50:21;;;;;;;25.90;16.92;;;34.40;75.30;;;;;;5012958;28;20021;-67
2022/08/07 08:53:05;;;;;;;28.00;18.17;;;34.20;77.60;;;;;;5012347;28;20029;-67
2022/08/07 08:55:40;;;;;;;21.45;15.90;;;34.30;74.00;;;;;;5011794;28;20396;-66
2022/08/07 08:58:08;;;;;;;28.73;18.45;;;34.20;74.50;;;;;;5012677;28;20022;-69
2022/08/07 09:00:42;;;;;;;17.95;13.75;;;34.10;76.90;;;;;;5012348;28;20064;-67
2022/08/07 09:03:35;;;;;;;20.70;16.27;;;34.10;73.80;;;;;;5011972;28;20095;-67
2022/08/07 09:06:26;;;;;;;21.15;16.55;;;34.00;75.90;;;;;;4932354;29;20593;-67
2022/08/07 09:09:10;;;;;;;20.10;15.38;;;34.10;74.40;;;;;;4933359;29;20028;-67
2022/08/07 09:11:54;;;;;;;25.40;16.45;;;34.10;77.20;;;;;;4933418;29;20048;-66
2022/08/07 09:14:40;;;;;;;26.23;17.83;;;34.10;75.20;;;;;;4934195;29;20031;-65
2022/08/07 09:17:21;;;;;;;29.08;18.40;;;34.10;73.50;;;;;;4933933;29;20039;-65
2022/08/07 09:19:56;;;;;;;27.38;18.90;;;34.00;75.80;;;;;;4933392;29;20032;-66
2022/08/07 09:23:02;;;;;;;24.55;17.35;;;33.90;73.90;;;;;;4933400;29;20119;-66
2022/08/07 09:26:08;;;;;;;30.50;22.33;;;33.90;74.00;;;;;;4931588;29;20031;-66
2022/08/07 09:28:40;;;;;;;27.23;18.65;;;33.90;75.70;;;;;;4895613;29;20056;-66
2022/08/07 09:31:06;;;;;;;130.90;99.55;;;33.90;73.60;;;;;;4895781;29;20127;-65
2022/08/07 09:34:07;;;;;;;100.13;75.53;;;33.80;74.30;;;;;;4894750;29;20084;-65
2022/08/07 09:36:55;;;;;;;333.70;237.02;;;33.80;76.20;;;;;;4895255;29;20044;-64
2022/08/07 09:39:35;;;;;;;133.63;92.10;;;33.80;74.80;;;;;;4877163;29;20088;-65
2022/08/07 09:42:41;;;;;;;94.88;60.60;;;33.80;75.00;;;;;;4876980;29;20040;-63
2022/08/07 09:45:13;;;;;;;67.03;40.67;;;33.80;77.30;;;;;;4840190;29;20402;-66
2022/08/07 09:47:59;;;;;;;43.03;30.50;;;33.80;76.10;;;;;;4839467;29;20125;-66
2022/08/07 09:50:47;;;;;;;28.70;22.00;;;33.80;75.50;;;;;;4837296;29;20063;-65
2022/08/07 09:53:14;;;;;;;34.78;23.92;;;33.70;75.50;;;;;;4840167;29;20363;-65
2022/08/07 09:55:42;;;;;;;34.13;23.75;;;33.80;76.50;;;;;;4840007;29;20041;-65
2022/08/07 09:58:29;;;;;;;31.13;22.70;;;33.70;76.10;;;;;;4850959;29;20044;-65
2022/08/07 10:00:58;;;;;;;34.47;25.05;;;33.60;77.70;;;;;;4895542;29;20073;-66
2022/08/07 10:03:46;;;;;;;35.63;22.70;;;33.60;77.20;;;;;;4882648;29;20154;-66
2022/08/07 10:06:35;;;;;;;29.25;24.02;;;33.60;76.10;;;;;;4887256;29;20044;-66
2022/08/07 10:09:17;;;;;;;28.90;20.50;;;33.60;76.00;;;;;;4877125;29;20037;-65
2022/08/07 10:11:54;;;;;;;25.42;18.88;;;33.50;75.50;;;;;;4886362;29;20127;-66
2022/08/07 10:14:38;;;;;;;28.70;19.45;;;33.40;76.60;;;;;;4893844;29;20025;-66
2022/08/07 10:17:11;;;;;;;35.03;22.65;;;33.40;75.60;;;;;;4930555;29;20457;-65
2022/08/07 10:19:40;;;;;;;36.78;24.92;;;33.30;78.90;;;;;;4932095;29;20031;-66
2022/08/07 10:22:30;;;;;;;34.95;24.25;;;33.30;77.20;;;;;;4932240;29;20031;-65
2022/08/07 10:25:13;;;;;;;35.67;24.80;;;33.30;78.00;;;;;;4931928;29;20035;-65
2022/08/07 10:28:01;;;;;;;47.50;31.90;;;33.30;78.20;;;;;;4929172;29;20036;-65
2022/08/07 10:30:38;;;;;;;46.05;31.80;;;33.30;78.70;;;;;;4931224;29;20039;-66
2022/08/07 10:33:07;;;;;;;40.28;28.50;;;33.20;79.50;;;;;;4936135;29;20135;-65
2022/08/07 10:35:37;;;;;;;36.95;24.30;;;33.10;79.50;;;;;;4971753;28;20563;-66
2022/08/07 10:38:19;;;;;;;34.20;23.63;;;33.00;78.80;;;;;;5016526;28;20054;-66
2022/08/07 10:41:05;;;;;;;27.13;20.83;;;33.00;79.40;;;;;;5016228;28;20403;-65
2022/08/07 10:43:42;;;;;;;35.17;25.73;;;33.00;78.50;;;;;;5016462;28;20036;-66
2022/08/07 10:46:19;;;;;;;49.90;36.20;;;33.00;79.10;;;;;;5016343;28;20030;-66
2022/08/07 10:48:54;;;;;;;48.63;35.20;;;32.90;78.80;;;;;;5016233;28;20029;-66
2022/08/07 10:51:22;;;;;;;50.58;32.40;;;32.80;79.80;;;;;;5016347;28;20512;-66
2022/08/07 10:53:55;;;;;;;45.60;30.80;;;32.90;79.90;;;;;;5016394;28;20482;-66
2022/08/07 10:56:23;;;;;;;40.53;28.40;;;32.90;80.10;;;;;;5016029;28;20094;-65
2022/08/07 10:59:11;;;;;;;40.30;30.55;;;32.80;80.30;;;;;;5016027;28;20034;-66
2022/08/07 11:01:44;;;;;;;45.30;32.50;;;32.80;80.80;;;;;;5016074;28;20108;-65
2022/08/07 11:04:21;;;;;;;45.55;31.08;;;32.80;82.00;;;;;;5015894;28;20030;-66
2022/08/07 11:07:05;;;;;;;48.80;33.80;;;32.80;81.60;;;;;;5015755;28;20157;-67
2022/08/07 11:09:39;;;;;;;61.03;40.63;;;32.70;81.50;;;;;;5015853;28;20017;-66
2022/08/07 11:12:16;;;;;;;68.38;41.88;;;32.70;81.80;;;;;;5015659;28;20384;-66
2022/08/07 11:14:59;;;;;;;59.03;41.55;;;32.70;82.20;;;;;;5006603;28;20105;-66
2022/08/07 11:17:40;;;;;;;69.10;46.90;;;32.70;82.20;;;;;;4996279;28;20385;-66
2022/08/07 11:20:31;;;;;;;73.38;41.67;;;32.70;82.10;;;;;;4996149;28;20397;-66
2022/08/07 11:23:14;;;;;;;61.05;41.00;;;32.60;83.40;;;;;;4955147;29;20035;-66
2022/08/07 11:25:50;;;;;;;69.43;43.38;;;32.50;82.80;;;;;;4955091;29;20437;-66
2022/08/07 11:28:20;;;;;;;60.42;41.47;;;32.50;83.90;;;;;;4955134;29;20601;-66
2022/08/07 11:30:57;;;;;;;54.40;36.05;;;32.50;84.50;;;;;;4955127;29;20103;-67
2022/08/07 11:33:42;;;;;;;58.75;37.80;;;32.50;84.00;;;;;;4954970;29;20023;-67
2022/08/07 11:36:32;;;;;;;64.40;38.10;;;32.40;84.20;;;;;;4954060;29;20035;-67
2022/08/07 11:39:28;;;;;;;57.17;36.50;;;32.40;84.70;;;;;;4953040;29;20049;-66
2022/08/07 11:42:22;;;;;;;57.75;35.53;;;32.40;84.90;;;;;;4952357;29;20106;-65
2022/08/07 11:44:55;;;;;;;58.83;39.42;;;32.40;84.70;;;;;;4875919;29;20382;-65
2022/08/07 11:47:29;;;;;;;58.92;38.22;;;32.40;85.10;;;;;;4876476;29;20035;-66
2022/08/07 11:50:21;;;;;;;60.60;39.17;;;32.40;85.10;;;;;;4877457;29;20044;-65
2022/08/07 11:52:48;;;;;;;;;;;32.30;85.80;;;;;;4840716;29;20044;-65
2022/08/07 11:55:16;;;;;;;73.75;45.60;;;32.30;86.10;;;;;;4840598;29;19990;-65
2022/08/07 11:57:45;;;;;;;65.45;43.20;;;32.20;85.80;;;;;;4840398;29;20041;-65
2022/08/07 12:00:17;;;;;;;66.95;46.30;;;32.20;86.70;;;;;;4844644;29;20042;-67
2022/08/07 12:02:52;;;;;;;83.85;53.70;;;32.20;86.80;;;;;;4849010;29;20034;-65
2022/08/07 12:05:41;;;;;;;75.03;50.33;;;32.00;86.90;;;;;;4849488;29;20394;-67
2022/08/07 12:08:25;;;;;;;65.43;46.47;;;31.90;90.10;;;;;;4850926;29;20080;-67
2022/08/07 12:10:56;;;;;;;61.67;46.25;;;31.80;91.20;;;;;;4850663;29;20136;-66
2022/08/07 12:13:41;;;;;;;69.50;53.72;;;31.70;92.00;;;;;;4844119;29;20054;-66
2022/08/07 12:16:17;;;;;;;73.85;56.05;;;31.60;93.40;;;;;;4855747;29;20528;-65
2022/08/07 12:19:12;;;;;;;81.32;60.45;;;31.50;93.70;;;;;;4860291;29;20430;-63
2022/08/07 12:21:44;;;;;;;78.57;59.90;;;31.40;94.80;;;;;;4883205;29;20112;-64
2022/08/07 12:24:24;;;;;;;82.53;63.47;;;31.20;95.60;;;;;;4934849;29;20092;-63
2022/08/07 12:26:57;;;;;;;84.28;65.47;;;31.10;96.30;;;;;;4934743;29;20124;-64
2022/08/07 12:29:57;;;;;;;79.45;61.20;;;31.00;96.70;;;;;;4950075;29;20047;-64
2022/08/07 12:32:53;;;;;;;69.68;56.83;;;31.00;97.00;;;;;;4953459;29;20082;-65
2022/08/07 12:35:21;;;;;;;83.07;64.38;;;30.90;97.50;;;;;;4895448;29;20047;-63
2022/08/07 12:37:50;;;;;;;83.93;66.20;;;30.80;97.70;;;;;;4953506;28;20521;-63
2022/08/07 12:40:22;;;;;;;92.03;69.88;;;30.80;98.20;;;;;;4953172;29;20035;-63
2022/08/07 12:42:53;;;;;;;89.25;70.75;;;30.80;98.30;;;;;;4951548;29;20517;-63
2022/08/07 12:45:28;;;;;;;94.70;75.53;;;30.70;98.50;;;;;;4952873;29;20023;-66
2022/08/07 12:47:58;;;;;;;97.57;82.25;;;30.60;98.90;;;;;;4952042;29;20127;-65
2022/08/07 12:50:30;;;;;;;109.28;86.63;;;30.60;99.00;;;;;;4952631;29;20096;-65
2022/08/07 12:53:06;;;;;;;103.63;82.63;;;30.50;99.80;;;;;;4951449;29;20498;-62
2022/08/07 12:55:40;;;;;;;110.75;87.30;;;30.50;99.90;;;;;;4950703;28;20545;-64
2022/08/07 12:58:10;;;;;;;112.32;91.28;;;30.40;99.90;;;;;;4949782;29;20102;-64